Bei Facebook empfehlenBei Twitter postenGoogle plusPinterest

Das Wetter im Erzgebirge am 27.03.2017

Wetter und Klima am 27.03.2017 Holzhau im Erzgebirge (630m ü.NN)
Letzte gemessene Temperatur und Uhrzeit der Messung23:45:00 Uhr0.90 °C
Temperatur (Maximum / Höchstwert) und Uhrzeit der Messung16:15:00 Uhr17.70 °C
Temperatur (Minimum / Tiefstwert) und Uhrzeit der Messung07:30:00-3.20 °C
Errechneter Absolutwert der Temperaturschwankungen zwischen Tmin und Tmax des Tages20.90 K
Errechnete Tagesmitteltemperatur5.59479 °C
Gesamt - Niederschlag des Tages (in flüssiger Form)0.00 Liter / m²
Luftdruck (Maximum / Höchstwert) und Zeitpunkt der Messung12:00:00 Uhr1022.60 hPa
Luftdruck (Minimum / Tiefstwert) und Zeitpunkt der Messung19:45:00 Uhr1020.20 hPa
Errechneter Absolutwert der Luftdruckschwankungen des Tages2.40 hPa
Höchste gemessene Windgeschwindigkeit und Uhrzeit der Messung14:15:00 Uhr9.00 km/h
Errechnete Windhäufigkeit in Relation zu den Messwerten des Tages43.75000 %
Niedrigste Windkühle (Windchill) und Zeitpunkt der Messung06:00:00 Uhr-6.00 °C
Taupunkt (Maximum / Höchstwert) und Uhrzeit der Messung10:15:00 Uhr1.70 °C
Taupunkt (Minimum / Tiefstwert) und Uhrzeit der Messung05:00:00-6.30 °C
Anzahl der automatisch eingelesenen Messwerte 96

Detaillierte Wetter- und Klima- Messwerte für den 27.03.2017 in Holzhau im Erzgebirge (630m ü.NN)
ZeitTemperaturLuftdruckRel. LuftfeuchteWindWindrichtungWindchillTaupunktNiederschlag l/m²
23:45:000.90 °C1020.50 hPa77.00 %2.88 km/hSO0.90 °C-2.70 °C 
23:30:000.90 °C1020.50 hPa76.00 %-2.80 °C 
23:15:001.20 °C1020.40 hPa75.00 %1.08 km/hSO1.20 °C-2.70 °C 
23:00:001.30 °C1020.40 hPa74.00 %-2.80 °C 
22:45:001.50 °C1020.60 hPa73.00 %5.40 km/hSO-0.10 °C-2.80 °C 
22:30:002.10 °C1020.60 hPa71.00 %-2.60 °C 
22:15:002.40 °C1020.50 hPa69.00 %-2.70 °C 
22:00:003.10 °C1020.50 hPa67.00 %-2.40 °C 
21:45:003.60 °C1020.40 hPa66.00 %5.40 km/hOSO2.30 °C-2.10 °C 
21:30:003.30 °C1020.40 hPa66.00 %-2.40 °C 
21:15:003.50 °C1020.40 hPa65.00 %1.44 km/hSO3.50 °C-2.40 °C 
21:00:004.10 °C1020.40 hPa64.00 %0.72 km/hSO4.10 °C-2.10 °C 
20:45:004.60 °C1020.30 hPa61.00 %-2.30 °C 
20:30:004.80 °C1020.30 hPa61.00 %-2.10 °C 
20:15:005.60 °C1020.40 hPa59.00 %1.08 km/hSO5.60 °C-1.80 °C 
20:00:006.50 °C1020.30 hPa58.00 %4.68 km/hOSO6.50 °C-1.20 °C 
19:45:007.20 °C1020.20 hPa54.00 %1.44 km/hSO7.20 °C-1.50 °C 
19:30:008.50 °C1020.20 hPa50.00 %1.08 km/hSO8.50 °C-1.30 °C 
19:15:009.90 °C1020.20 hPa48.00 %-0.60 °C 
19:00:0011.40 °C1020.20 hPa44.00 %-0.40 °C 
18:45:0013.10 °C1020.20 hPa40.00 %-0.20 °C 
18:30:0014.80 °C1020.30 hPa36.00 %-0.10 °C 
18:15:0015.80 °C1020.40 hPa34.00 %0.00 °C 
18:00:0016.40 °C1020.50 hPa32.00 %-0.30 °C 
17:45:0016.80 °C1020.30 hPa30.00 %2.52 km/hS16.80 °C-0.90 °C 
17:30:0017.20 °C1020.40 hPa29.00 %-1.00 °C 
17:15:0017.40 °C1020.50 hPa28.00 %3.60 km/hSW17.40 °C-1.30 °C 
17:00:0017.50 °C1020.60 hPa27.00 %-1.70 °C 
16:45:0017.40 °C1020.70 hPa27.00 %-1.80 °C 
16:30:0017.60 °C1020.80 hPa27.00 %2.16 km/hWNW17.60 °C-1.60 °C 
16:15:0017.70 °C1020.90 hPa27.00 %-1.50 °C 
16:00:0017.40 °C1021.10 hPa27.00 %-1.80 °C 
15:45:0017.30 °C1021.30 hPa27.00 %-1.90 °C 
15:30:0016.90 °C1021.40 hPa26.00 %-2.70 °C 
15:15:0016.90 °C1021.60 hPa27.00 %-2.20 °C 
15:00:0016.60 °C1021.90 hPa28.00 %-2.00 °C 
14:45:0016.30 °C1021.90 hPa28.00 %-2.20 °C 
14:30:0016.00 °C1022.00 hPa29.00 %2.16 km/hSW16.00 °C-2.00 °C 
14:15:0015.90 °C1022.20 hPa29.00 %9.00 km/hSW15.80 °C-2.10 °C 
14:00:0015.60 °C1022.50 hPa30.00 %1.44 km/hSSO15.60 °C-1.90 °C 
13:45:0015.90 °C1022.40 hPa30.00 %6.84 km/hSSO16.10 °C-1.60 °C 
13:30:0015.80 °C1022.50 hPa30.00 %2.16 km/hSW15.80 °C-1.70 °C 
13:15:0015.40 °C1022.40 hPa30.00 %-2.10 °C 
13:00:0015.20 °C1022.50 hPa33.00 %4.32 km/hSO15.20 °C-0.90 °C 
12:45:0014.70 °C1022.40 hPa32.00 %2.52 km/hSSW14.70 °C-1.80 °C 
12:30:0014.30 °C1022.40 hPa32.00 %-2.20 °C 
12:15:0013.90 °C1022.40 hPa33.00 %-2.10 °C 
12:00:0013.40 °C1022.60 hPa34.00 %-2.10 °C 
11:45:0012.80 °C1022.40 hPa35.00 %4.68 km/hO12.80 °C-2.30 °C 
11:30:0012.50 °C1022.30 hPa37.00 %6.84 km/hSO12.20 °C-1.80 °C 
11:15:0011.90 °C1022.60 hPa41.00 %2.88 km/hSSW11.90 °C-0.90 °C 
11:00:0011.30 °C1022.40 hPa44.00 %4.32 km/hSW11.30 °C-0.50 °C 
10:45:0010.80 °C1022.20 hPa50.00 %3.24 km/hSO10.80 °C0.80 °C 
10:30:009.80 °C1022.40 hPa55.00 %1.20 °C 
10:15:008.30 °C1022.40 hPa63.00 %1.70 °C 
10:00:006.40 °C1022.40 hPa68.00 %0.90 °C 
09:45:004.70 °C1022.20 hPa74.00 %0.50 °C 
09:30:003.10 °C1022.30 hPa76.00 %-0.70 °C 
09:15:001.80 °C1022.20 hPa79.00 %-1.40 °C 
09:00:000.40 °C1022.20 hPa80.00 %-2.60 °C 
08:45:00-0.50 °C1022.00 hPa82.00 %-3.50 °C 
08:30:00-1.60 °C1022.00 hPa83.00 %-4.40 °C 
08:15:00-2.40 °C1022.00 hPa83.00 %-5.20 °C 
08:00:00-2.90 °C1022.10 hPa83.00 %-5.70 °C 
07:45:00-3.10 °C1021.90 hPa83.00 %-5.90 °C 
07:30:00-3.20 °C1022.00 hPa83.00 %2.52 km/hOSO-3.20 °C-6.00 °C 
07:15:00-3.20 °C1022.00 hPa82.00 %-6.10 °C 
07:00:00-2.90 °C1022.00 hPa82.00 %-5.90 °C 
06:45:00-2.90 °C1022.00 hPa82.00 %6.12 km/hOSO-5.40 °C-5.90 °C 
06:30:00-2.90 °C1021.80 hPa82.00 %3.24 km/hOSO-2.90 °C-5.90 °C 
06:15:00-2.80 °C1021.80 hPa82.00 %2.88 km/hO-2.80 °C-5.80 °C 
06:00:00-2.90 °C1021.60 hPa83.00 %7.56 km/hOSO-6.00 °C-5.70 °C 
05:45:00-3.10 °C1021.80 hPa83.00 %5.40 km/hOSO-5.30 °C-5.90 °C 
05:30:00-3.10 °C1021.70 hPa82.00 %-6.00 °C 
05:15:00-3.10 °C1021.90 hPa82.00 %1.80 km/hOSO-3.10 °C-6.00 °C 
05:00:00-3.20 °C1021.70 hPa81.00 %-6.30 °C 
04:45:00-3.10 °C1021.70 hPa81.00 %-6.20 °C 
04:30:00-3.10 °C1021.70 hPa81.00 %5.04 km/hSO-5.10 °C-6.20 °C 
04:15:00-3.00 °C1021.90 hPa80.00 %4.68 km/hO-3.00 °C-6.30 °C 
04:00:00-2.60 °C1022.00 hPa79.00 %-6.10 °C 
03:45:00-2.50 °C1021.80 hPa79.00 %-6.00 °C 
03:30:00-2.20 °C1021.90 hPa79.00 %-5.70 °C 
03:15:00-2.40 °C1021.90 hPa79.00 %5.04 km/hSO-4.30 °C-5.90 °C 
03:00:00-2.40 °C1021.90 hPa79.00 %6.48 km/hONO-5.00 °C-5.90 °C 
02:45:00-2.20 °C1021.90 hPa79.00 %4.68 km/hOSO-2.20 °C-5.70 °C 
02:30:00-2.40 °C1022.00 hPa79.00 %-5.90 °C 
02:15:00-2.60 °C1022.20 hPa79.00 %0.36 km/hO-2.60 °C-6.10 °C 
02:00:00-2.60 °C1022.30 hPa79.00 %3.24 km/hSO-2.60 °C-6.10 °C 
01:45:00-2.40 °C1022.30 hPa78.00 %-6.10 °C 
01:30:00-2.40 °C1022.30 hPa78.00 %-6.10 °C 
01:15:00-2.40 °C1022.10 hPa78.00 %2.16 km/hSO-2.40 °C-6.10 °C 
01:00:00-2.10 °C1022.00 hPa77.00 %-6.00 °C 
00:45:00-2.20 °C1021.90 hPa77.00 %1.44 km/hO-2.20 °C-6.10 °C 
00:30:00-1.90 °C1022.10 hPa77.00 %-5.80 °C 
00:15:00-1.90 °C1022.10 hPa77.00 %-5.80 °C 
00:00:00-2.10 °C1022.10 hPa77.00 %8.28 km/hO-5.30 °C-6.00 °C 

Permanenter Link zu dieser Seite: Wetter im Erzgebirge am 27.03.2017
Performance-Info: Die Erstellung der Seite / Statistik(en) / Tabelle(n) erforderte 5 Datenbankserver-Abfrage(n) und dauerte 101 Millisekunden. (Dieser Messwert ist von der Gesamt-Auslastung des Servers abhängig.)
Erzgebirge - Wetter | Erzgebirge - Wetter (Mobilgeräte) | Komplette Klimadatenbank